Time;durP1;ratioP1;P1;durP2;ratioP2;P2;SDS_P1;SDS_P2;PMS_P1;PMS_P2;Temp;Humidity;BMP_temperature;BMP_pressure;BME280_temperature;BME280_humidity;BME280_pressure;Samples;Min_cycle;Max_cycle;Signal;HPM_P1;HPM_P2
2022/07/05 00:00:23;;;;;;;9.80;3.60;;;;;;;25.75;100.00;99484.84;1729346;83;21064;-75
2022/07/05 00:02:50;;;;;;;4.80;3.37;;;;;;;25.71;100.00;99490.37;1725795;81;21080;-73
2022/07/05 00:05:16;;;;;;;4.83;3.45;;;;;;;25.66;100.00;99484.56;1725753;83;21004;-75
2022/07/05 00:08:04;;;;;;;6.42;3.35;;;;;;;25.62;100.00;99492.27;1728223;81;21689;-71
2022/07/05 00:10:33;;;;;;;3.50;3.12;;;;;;;25.49;100.00;99488.61;1748085;81;21159;-72
2022/07/05 00:13:00;;;;;;;5.05;3.75;;;;;;;25.58;100.00;99489.50;1754780;81;21074;-72
2022/07/05 00:15:29;;;;;;;5.40;3.60;;;;;;;25.53;100.00;99495.00;1752092;81;21039;-72
2022/07/05 00:17:56;;;;;;;5.22;3.47;;;;;;;25.57;100.00;99492.14;1755666;81;21046;-74
2022/07/05 00:20:30;;;;;;;6.47;3.98;;;;;;;25.62;100.00;99496.50;1706530;83;20999;-75
2022/07/05 00:22:56;;;;;;;4.08;3.20;;;;;;;25.47;100.00;99493.09;1676999;85;22173;-75
2022/07/05 00:25:23;;;;;;;5.42;4.28;;;;;;;25.45;100.00;99490.69;1676754;85;21046;-74
2022/07/05 00:27:50;;;;;;;6.10;3.90;;;;;;;25.39;100.00;99489.55;1683787;84;21074;-75
2022/07/05 00:30:20;;;;;;;5.33;3.62;;;;;;;25.31;100.00;99493.69;1692199;84;21340;-76
2022/07/05 00:32:46;;;;;;;4.25;3.45;;;;;;;25.24;100.00;99492.57;1693620;84;21042;-75
2022/07/05 00:35:25;;;;;;;5.00;3.50;;;;;;;25.12;100.00;99500.16;1693713;84;21483;-75
2022/07/05 00:37:55;;;;;;;4.50;3.52;;;;;;;25.09;100.00;99500.41;1692024;83;21027;-73
2022/07/05 00:40:24;;;;;;;4.17;3.60;;;;;;;25.12;100.00;99498.75;1682698;84;21066;-73
2022/07/05 00:42:52;;;;;;;12.63;3.50;;;;;;;25.10;100.00;99501.99;1694022;84;21038;-73
2022/07/05 00:45:22;;;;;;;7.25;3.92;;;;;;;25.04;100.00;99504.47;1693612;84;21059;-75
2022/07/05 00:47:49;;;;;;;5.47;3.42;;;;;;;25.06;100.00;99508.27;1693863;84;21530;-74
2022/07/05 00:50:22;;;;;;;6.70;3.55;;;;;;;25.01;100.00;99506.72;1693571;84;20987;-74
2022/07/05 00:52:54;;;;;;;7.65;3.62;;;;;;;25.08;100.00;99508.66;1693466;84;20975;-74
2022/07/05 00:55:23;;;;;;;7.28;3.47;;;;;;;25.11;100.00;99504.21;1677185;85;21540;-75
2022/07/05 00:57:57;;;;;;;6.60;4.03;;;;;;;25.16;100.00;99505.16;1677004;85;20988;-72
2022/07/05 01:00:24;;;;;;;4.70;3.77;;;;;;;25.16;100.00;99515.02;1677182;85;21122;-74
2022/07/05 01:02:53;;;;;;;3.60;3.20;;;;;;;25.18;100.00;99509.73;1676816;85;20900;-74
2022/07/05 01:05:21;;;;;;;5.83;3.70;;;;;;;25.13;100.00;99509.60;1677128;85;20961;-72
2022/07/05 01:08:30;;;;;;;4.40;3.42;;;;;;;25.06;100.00;99508.90;1676684;85;21516;-75
2022/07/05 01:11:01;;;;;;;4.58;3.85;;;;;;;25.01;100.00;99515.17;1659947;85;20941;-74
2022/07/05 01:13:28;;;;;;;4.03;3.42;;;;;;;25.12;100.00;99504.39;1676798;85;21122;-74
2022/07/05 01:15:57;;;;;;;5.28;3.70;;;;;;;24.99;100.00;99503.52;1676902;85;21016;-73
2022/07/05 01:18:24;;;;;;;5.47;3.42;;;;;;;25.02;100.00;99499.88;1658230;85;21024;-74
2022/07/05 01:20:56;;;;;;;7.15;4.30;;;;;;;24.82;100.00;99503.09;1669499;83;21535;-73
2022/07/05 01:23:25;;;;;;;5.35;3.50;;;;;;;24.83;100.00;99498.45;1719638;83;21058;-75
2022/07/05 01:26:02;;;;;;;7.58;3.92;;;;;;;24.74;100.00;99498.13;1719610;83;20991;-76
2022/07/05 01:28:31;;;;;;;4.70;3.87;;;;;;;24.72;100.00;99504.81;1719795;83;21007;-76
2022/07/05 01:30:57;;;;;;;7.47;3.35;;;;;;;24.73;100.00;99502.18;1720020;83;21027;-75
2022/07/05 01:33:29;;;;;;;6.78;4.10;;;;;;;24.80;100.00;99502.89;1719944;83;21012;-76
2022/07/05 01:35:58;;;;;;;7.42;4.15;;;;;;;24.72;100.00;99504.19;1720049;83;21011;-76
2022/07/05 01:38:25;;;;;;;6.90;3.90;;;;;;;24.71;100.00;99506.83;1719622;83;21238;-74
2022/07/05 01:40:52;;;;;;;7.03;4.12;;;;;;;24.76;100.00;99497.11;1719840;83;21035;-76
2022/07/05 01:43:20;;;;;;;6.20;4.28;;;;;;;24.91;100.00;99511.87;1719450;83;21024;-72
2022/07/05 01:45:53;;;;;;;6.20;4.20;;;;;;;24.85;100.00;99503.66;1711025;83;20996;-75
2022/07/05 01:48:21;;;;;;;5.87;3.95;;;;;;;24.75;100.00;99505.38;1711010;83;21023;-77
2022/07/05 01:50:51;;;;;;;4.60;3.33;;;;;;;24.68;100.00;99500.63;1710821;83;21728;-74
2022/07/05 01:53:24;;;;;;;5.08;3.58;;;;;;;24.68;100.00;99501.41;1710788;83;21047;-74
2022/07/05 01:55:56;;;;;;;5.03;3.70;;;;;;;24.77;100.00;99504.36;1710871;83;21004;-75
2022/07/05 01:58:25;;;;;;;4.58;4.03;;;;;;;24.77;100.00;99510.77;1751688;82;21027;-73
2022/07/05 02:00:55;;;;;;;4.80;4.25;;;;;;;24.78;100.00;99508.16;1751367;82;20991;-72
2022/07/05 02:03:24;;;;;;;6.97;4.15;;;;;;;24.85;100.00;99507.89;1751803;82;21880;-73
2022/07/05 02:05:59;;;;;;;3.55;3.22;;;;;;;24.83;100.00;99507.50;1758646;81;21004;-75
2022/07/05 02:08:29;;;;;;;5.97;3.85;;;;;;;24.89;100.00;99511.48;1751895;82;21008;-71
2022/07/05 02:11:00;;;;;;;5.65;4.20;;;;;;;24.91;100.00;99509.05;1756605;80;21142;-71
2022/07/05 02:13:27;;;;;;;3.87;3.58;;;;;;;24.84;100.00;99509.12;1776655;80;21453;-71
2022/07/05 02:15:56;;;;;;;6.00;3.80;;;;;;;24.73;100.00;99509.22;1724959;81;21015;-75
2022/07/05 02:18:23;;;;;;;8.98;4.05;;;;;;;24.68;100.00;99511.27;1759477;81;21090;-73
2022/07/05 02:20:50;;;;;;;6.95;4.30;;;;;;;24.68;100.00;99504.84;1732243;81;20999;-75
2022/07/05 02:23:23;;;;;;;4.58;3.75;;;;;;;24.52;100.00;99516.66;1745837;80;21452;-73
2022/07/05 02:25:51;;;;;;;5.40;3.58;;;;;;;24.39;100.00;99513.56;1702113;81;20984;-76
2022/07/05 02:28:20;;;;;;;10.30;4.10;;;;;;;24.40;100.00;99513.15;1719043;81;21876;-75
2022/07/05 02:30:58;;;;;;;5.37;4.72;;;;;;;24.32;100.00;99511.62;1705990;82;21061;-75
2022/07/05 02:33:32;;;;;;;4.78;3.92;;;;;;;24.45;100.00;99513.30;1732864;80;21051;-72
2022/07/05 02:36:11;;;;;;;5.30;3.58;;;;;;;24.48;100.00;99515.91;1645169;86;21429;-76
2022/07/05 02:38:38;;;;;;;7.20;4.00;;;;;;;24.73;100.00;99508.63;1741990;81;21007;-75
2022/07/05 02:41:09;;;;;;;5.17;3.92;;;;;;;24.71;100.00;99517.28;1712797;83;21472;-75
2022/07/05 02:43:39;;;;;;;6.87;4.50;;;;;;;24.78;100.00;99506.76;1720188;80;21066;-77
2022/07/05 02:46:08;;;;;;;5.42;3.83;;;;;;;24.83;100.00;99504.69;1740170;81;21003;-74
2022/07/05 02:48:38;;;;;;;11.45;4.72;;;;;;;25.11;100.00;99507.03;1710741;81;21203;-76
2022/07/05 02:51:06;;;;;;;6.92;4.12;;;;;;;25.04;100.00;99515.73;1726068;80;21046;-76
2022/07/05 02:53:34;;;;;;;7.33;4.03;;;;;;;25.21;100.00;99517.98;1733648;81;21171;-75
2022/07/05 02:56:06;;;;;;;9.05;4.47;;;;;;;25.15;100.00;99516.22;1739196;81;21026;-75
2022/07/05 02:58:34;;;;;;;8.68;4.03;;;;;;;25.35;100.00;99522.02;1717831;82;20978;-75
2022/07/05 03:04:20;;;;;;;6.20;4.15;;;;;;;25.34;100.00;99523.24;1746796;80;21086;-72
2022/07/05 03:06:49;;;;;;;9.55;3.72;;;;;;;25.46;100.00;99527.52;1727312;82;21461;-74
2022/07/05 03:09:19;;;;;;;8.28;4.22;;;;;;;25.32;100.00;99519.27;1710394;83;21138;-73
2022/07/05 03:11:56;;;;;;;13.18;4.70;;;;;;;25.31;100.00;99519.86;1695790;83;21066;-76
2022/07/05 03:14:23;;;;;;;10.25;5.20;;;;;;;25.32;100.00;99518.63;1730945;80;20960;-74
2022/07/05 03:16:50;;;;;;;19.67;5.90;;;;;;;25.36;100.00;99515.77;1737364;80;21012;-76
2022/07/05 03:19:19;;;;;;;19.23;5.53;;;;;;;25.37;100.00;99518.77;1731190;80;21209;-74
2022/07/05 03:21:46;;;;;;;8.95;4.03;;;;;;;25.34;100.00;99522.44;1719951;80;20985;-77
2022/07/05 03:24:12;;;;;;;23.25;5.42;;;;;;;25.55;100.00;99526.20;1730309;81;20956;-76
2022/07/05 03:26:41;;;;;;;18.95;7.15;;;;;;;25.70;100.00;99531.06;1716102;82;21066;-75
2022/07/05 03:29:08;;;;;;;21.17;5.85;;;;;;;25.88;100.00;99529.37;1734806;81;21090;-77
2022/07/05 03:31:36;;;;;;;20.50;6.10;;;;;;;25.72;100.00;99523.78;1690050;84;21572;-78
2022/07/05 03:34:05;;;;;;;11.05;4.85;;;;;;;25.79;100.00;99525.70;1696856;83;21032;-78
2022/07/05 03:36:33;;;;;;;15.13;5.35;;;;;;;25.85;100.00;99527.41;1683827;84;21076;-78
2022/07/05 03:39:02;;;;;;;10.18;5.75;;;;;;;25.91;100.00;99531.38;1649396;85;21056;-76
2022/07/05 03:41:29;;;;;;;7.70;5.78;;;;;;;25.96;100.00;99530.89;1666794;84;21135;-76
2022/07/05 03:43:59;;;;;;;10.32;4.90;;;;;;;25.97;100.00;99528.25;1660061;85;20965;-75
2022/07/05 03:46:28;;;;;;;6.67;4.78;;;;;;;25.89;100.00;99532.41;1676741;85;21060;-76
2022/07/05 03:49:05;;;;;;;5.65;4.87;;;;;;;25.87;100.00;99534.25;1665205;84;21120;-74
2022/07/05 03:51:38;;;;;;;5.17;4.55;;;;;;;25.94;100.00;99534.75;1658978;85;21029;-76
2022/07/05 03:54:05;;;;;;;7.03;5.20;;;;;;;25.94;100.00;99536.77;1659923;85;21017;-76
2022/07/05 03:56:32;;;;;;;7.35;4.47;;;;;;;25.95;100.00;99535.55;1636971;85;21667;-75
2022/07/05 03:59:09;;;;;;;9.55;4.87;;;;;;;25.88;100.00;99530.79;1716882;82;20967;-76
2022/07/05 04:01:37;;;;;;;9.65;5.10;;;;;;;25.94;100.00;99540.39;1724698;82;22064;-76
2022/07/05 04:04:04;;;;;;;6.80;5.15;;;;;;;25.91;100.00;99534.80;1733199;81;21543;-75
2022/07/05 04:06:31;;;;;;;7.95;4.42;;;;;;;25.88;100.00;99544.89;1745455;81;20936;-74
2022/07/05 04:09:00;;;;;;;8.33;4.28;;;;;;;25.88;100.00;99542.88;1731071;81;21899;-75
2022/07/05 04:11:27;;;;;;;7.55;4.62;;;;;;;25.91;100.00;99538.42;1738846;82;20996;-74
2022/07/05 04:13:55;;;;;;;5.70;4.30;;;;;;;25.83;100.00;99539.13;1725704;82;21051;-74
2022/07/05 04:16:25;;;;;;;6.92;4.15;;;;;;;25.87;100.00;99544.72;1734191;81;21039;-75
2022/07/05 04:18:52;;;;;;;6.58;4.33;;;;;;;25.97;100.00;99542.36;1694827;83;21430;-76
2022/07/05 04:21:19;;;;;;;11.30;5.25;;;;;;;25.95;100.00;99538.38;1661114;85;22127;-73
2022/07/05 04:23:47;;;;;;;5.65;4.45;;;;;;;25.96;100.00;99535.13;1661927;85;21008;-75
2022/07/05 04:26:16;;;;;;;10.30;6.42;;;;;;;26.07;100.00;99536.95;1672129;85;21129;-76
2022/07/05 04:28:47;;;;;;;10.95;5.72;;;;;;;26.10;100.00;99538.95;1660289;84;21535;-75
2022/07/05 04:31:15;;;;;;;7.80;5.80;;;;;;;26.04;100.00;99535.00;1721186;81;21012;-74
2022/07/05 04:33:44;;;;;;;12.18;6.75;;;;;;;26.09;100.00;99535.92;1739778;81;21059;-72
2022/07/05 04:36:15;;;;;;;12.30;6.60;;;;;;;26.14;100.00;99525.56;1741454;81;21398;-72
2022/07/05 04:38:42;;;;;;;11.12;6.92;;;;;;;26.23;100.00;99524.42;1739255;82;20961;-74
2022/07/05 04:41:09;;;;;;;10.08;7.05;;;;;;;26.29;100.00;99523.30;1710825;82;21012;-72
2022/07/05 04:43:38;;;;;;;9.55;5.75;;;;;;;26.45;100.00;99526.91;1736054;82;21026;-75
2022/07/05 04:46:09;;;;;;;13.28;6.42;;;;;;;26.61;100.00;99524.02;1723032;81;21048;-75
2022/07/05 04:48:40;;;;;;;12.25;6.22;;;;;;;26.70;100.00;99521.41;1729603;82;21043;-75
2022/07/05 04:55:05;;;;;;;7.60;5.65;;;;;;;26.94;100.00;99519.95;1699422;83;21070;-73
2022/07/05 04:57:41;;;;;;;9.35;5.85;;;;;;;26.97;100.00;99519.72;1740032;82;21067;-71
2022/07/05 05:00:16;;;;;;;11.38;6.10;;;;;;;27.12;100.00;99517.43;1730938;82;20992;-71
2022/07/05 05:02:53;;;;;;;10.63;6.83;;;;;;;27.28;100.00;99512.44;1739163;82;21528;-71
2022/07/05 05:09:02;;;;;;;10.08;6.25;;;;;;;27.37;100.00;99510.44;1583438;89;21098;-74
2022/07/05 05:11:30;;;;;;;16.67;9.18;;;;;;;27.51;100.00;99514.19;1732731;81;20968;-76
2022/07/05 05:14:02;;;;;;;18.77;8.63;;;;;;;27.56;100.00;99513.67;1720993;82;20968;-75
2022/07/05 05:16:38;;;;;;;18.92;9.25;;;;;;;27.70;100.00;99517.64;1713965;83;20992;-74
2022/07/05 05:19:08;;;;;;;12.55;8.90;;;;;;;27.70;100.00;99516.23;1721795;82;20956;-75
2022/07/05 05:21:36;;;;;;;17.35;10.48;;;;;;;27.78;100.00;99518.27;1706091;82;21047;-75
2022/07/05 05:24:05;;;;;;;23.65;10.55;;;;;;;27.77;100.00;99512.44;1718894;82;21010;-75
2022/07/05 05:26:39;;;;;;;18.15;9.53;;;;;;;27.88;100.00;99519.24;1744731;82;21368;-75
2022/07/05 05:29:06;;;;;;;19.12;10.32;;;;;;;28.09;100.00;99522.00;1744588;82;20948;-76
2022/07/05 05:31:34;;;;;;;18.75;9.68;;;;;;;28.01;100.00;99523.58;1726606;82;21087;-76
2022/07/05 05:34:01;;;;;;;20.10;10.20;;;;;;;28.18;100.00;99524.38;1706723;84;20997;-76
2022/07/05 05:36:31;;;;;;;19.02;10.65;;;;;;;28.29;100.00;99528.98;1706697;84;21061;-74
2022/07/05 05:38:58;;;;;;;17.42;10.15;;;;;;;28.45;100.00;99528.22;1678941;85;21164;-73
2022/07/05 05:41:26;;;;;;;23.10;11.50;;;;;;;28.54;100.00;99536.09;1745003;82;20917;-74
2022/07/05 05:44:01;;;;;;;23.52;11.50;;;;;;;28.66;100.00;99528.91;1745152;82;21013;-73
2022/07/05 05:46:27;;;;;;;15.20;9.33;;;;;;;28.74;100.00;99532.33;1744149;82;21037;-74
2022/07/05 05:48:55;;;;;;;19.70;9.50;;;;;;;28.78;100.00;99530.20;1705678;84;21064;-74
2022/07/05 05:51:23;;;;;;;14.93;9.40;;;;;;;28.97;100.00;99531.28;1672849;85;21179;-75
2022/07/05 05:53:51;;;;;;;17.98;9.18;;;;;;;29.02;100.00;99527.13;1677919;85;21049;-75
2022/07/05 05:56:19;;;;;;;19.73;8.65;;;;;;;29.04;100.00;99524.64;1677933;85;21044;-76
2022/07/05 05:58:46;;;;;;;27.30;9.88;;;;;;;29.25;100.00;99523.86;1677773;85;21651;-72
2022/07/05 06:01:16;;;;;;;15.28;8.60;;;;;;;29.28;100.00;99522.95;1678770;85;20970;-73
2022/07/05 06:03:44;;;;;;;11.53;7.75;;;;;;;29.50;100.00;99519.47;1679346;85;21189;-75
2022/07/05 06:06:12;;;;;;;14.18;8.40;;;;;;;29.49;100.00;99516.47;1679234;85;20970;-73
2022/07/05 06:08:49;;;;;;;18.32;8.45;;;;;;;29.63;100.00;99526.63;1679515;85;21431;-76
2022/07/05 06:11:18;;;;;;;11.73;7.45;;;;;;;29.76;100.00;99529.46;1679520;85;21014;-76
2022/07/05 06:13:51;;;;;;;15.80;7.30;;;;;;;29.72;100.00;99525.31;1676493;85;21554;-75
2022/07/05 06:16:17;;;;;;;15.00;7.08;;;;;;;29.76;100.00;99525.20;1679498;85;21508;-77
2022/07/05 06:18:49;;;;;;;10.88;7.47;;;;;;;29.71;100.00;99524.34;1660801;85;20990;-76
2022/07/05 06:21:15;;;;;;;15.70;7.35;;;;;;;29.91;100.00;99530.44;1679430;85;21097;-75
2022/07/05 06:23:47;;;;;;;13.62;7.03;;;;;;;29.95;100.00;99527.66;1691563;84;20968;-75
2022/07/05 06:26:14;;;;;;;12.58;6.20;;;;;;;29.95;100.00;99522.59;1694388;84;21076;-76
2022/07/05 06:28:42;;;;;;;18.60;6.53;;;;;;;30.00;100.00;99524.86;1694276;84;21156;-75
2022/07/05 06:31:09;;;;;;;12.63;6.00;;;;;;;30.05;100.00;99522.87;1694551;84;21013;-76
2022/07/05 06:33:43;;;;;;;10.65;6.35;;;;;;;30.20;100.00;99520.34;1694197;84;20995;-73
2022/07/05 06:36:09;;;;;;;12.25;5.58;;;;;;;30.25;100.00;99520.42;1694395;83;21437;-74
2022/07/05 06:38:39;;;;;;;11.85;6.20;;;;;;;30.40;100.00;99523.56;1694471;84;20870;-74
2022/07/05 06:41:08;;;;;;;9.50;5.60;;;;;;;30.54;100.00;99520.09;1694295;84;21154;-76
2022/07/05 06:43:36;;;;;;;14.78;6.53;;;;;;;30.64;100.00;99516.05;1694307;84;21057;-76
2022/07/05 06:46:06;;;;;;;11.73;5.10;;;;;;;30.73;100.00;99518.19;1693841;84;21001;-76
2022/07/05 06:48:40;;;;;;;8.15;5.03;;;;;;;30.82;100.00;99523.19;1694491;83;20970;-75
2022/07/05 06:51:07;;;;;;;9.68;5.72;;;;;;;30.81;100.00;99519.54;1694364;84;21549;-76
2022/07/05 06:53:34;;;;;;;11.73;5.75;;;;;;;30.68;100.00;99519.57;1694311;84;21861;-76
2022/07/05 06:56:01;;;;;;;12.95;6.05;;;;;;;30.70;100.00;99519.11;1694236;84;21422;-75
2022/07/05 06:58:34;;;;;;;14.80;5.80;;;;;;;30.77;100.00;99521.70;1690168;84;20973;-73
2022/07/05 07:01:51;;;;;;;8.08;5.33;;;;;;;30.79;100.00;99522.66;1710680;83;20973;-76
2022/07/05 07:04:20;;;;;;;10.15;5.12;;;;;;;30.81;100.00;99517.34;1716064;83;21044;-79
2022/07/05 07:06:52;;;;;;;5.90;4.75;;;;;;;30.89;100.00;99520.71;1691127;83;21782;-77
2022/07/05 07:09:33;;;;;;;8.65;4.92;;;;;;;31.08;100.00;99527.34;1716282;83;20921;-74
2022/07/05 07:12:01;;;;;;;10.60;5.15;;;;;;;31.16;100.00;99527.85;1716302;83;21028;-73
2022/07/05 07:14:29;;;;;;;9.35;4.65;;;;;;;31.24;100.00;99529.16;1715990;83;20932;-75
2022/07/05 07:17:08;;;;;;;9.38;4.62;;;;;;;31.32;100.00;99527.63;1715744;83;20996;-76
2022/07/05 07:19:36;;;;;;;7.17;4.92;;;;;;;31.41;100.00;99520.44;1716183;83;21858;-77
2022/07/05 07:22:05;;;;;;;9.18;4.53;;;;;;;31.66;100.00;99520.91;1716045;83;20992;-75
2022/07/05 07:24:31;;;;;;;5.45;4.58;;;;;;;31.69;100.00;99513.47;1714851;83;21020;-77
2022/07/05 07:27:06;;;;;;;7.92;4.22;;;;;;;31.82;100.00;99522.70;1694251;84;21056;-74
2022/07/05 07:29:37;;;;;;;5.75;4.03;;;;;;;31.83;100.00;99524.27;1694346;84;21027;-74
2022/07/05 07:32:05;;;;;;;7.22;4.30;;;;;;;31.89;97.73;99515.92;1694106;84;21244;-73
2022/07/05 07:34:31;;;;;;;4.55;4.05;;;;;;;31.79;97.07;99520.80;1694340;84;20950;-75
2022/07/05 07:36:58;;;;;;;7.72;4.28;;;;;;;31.81;96.06;99523.17;1694290;84;20985;-74
2022/07/05 07:39:28;;;;;;;8.53;4.30;;;;;;;31.87;95.44;99519.09;1690727;84;21017;-74
2022/07/05 07:41:56;;;;;;;10.55;4.28;;;;;;;31.94;96.43;99512.45;1694575;84;21021;-72
2022/07/05 07:44:28;;;;;;;9.18;4.53;;;;;;;32.01;100.00;99512.83;1694344;84;21810;-73
2022/07/05 07:46:56;;;;;;;9.10;4.10;;;;;;;32.05;100.00;99518.38;1694447;84;21500;-76
2022/07/05 07:49:25;;;;;;;12.00;4.53;;;;;;;32.16;99.62;99512.22;1694447;84;21085;-77
2022/07/05 07:51:53;;;;;;;5.00;3.83;;;;;;;32.27;96.54;99514.00;1690688;83;21230;-76
2022/07/05 07:54:21;;;;;;;6.12;4.20;;;;;;;32.36;96.92;99511.00;1694208;84;21036;-75
2022/07/05 07:56:55;;;;;;;6.87;4.08;;;;;;;32.44;96.61;99509.42;1694024;84;21836;-72
2022/07/05 07:59:30;;;;;;;7.65;4.15;;;;;;;32.49;95.06;99503.73;1694078;83;21454;-72
2022/07/05 08:02:05;;;;;;;7.62;3.98;;;;;;;32.60;93.44;99504.07;1694272;83;20969;-76
2022/07/05 08:04:31;;;;;;;4.65;3.47;;;;;;;32.66;91.04;99504.23;1694089;84;20989;-75
2022/07/05 08:06:58;;;;;;;7.87;4.28;;;;;;;32.75;88.66;99495.70;1694020;84;21429;-72
2022/07/05 08:09:26;;;;;;;5.12;3.90;;;;;;;32.82;87.98;99495.21;1694345;84;21495;-74
2022/07/05 08:11:55;;;;;;;6.10;3.75;;;;;;;32.81;88.74;99487.28;1694328;84;20861;-77
2022/07/05 08:14:27;;;;;;;5.83;3.80;;;;;;;32.84;85.97;99488.41;1694183;83;21505;-74
2022/07/05 08:16:53;;;;;;;6.95;3.50;;;;;;;32.88;85.27;99485.54;1694348;84;21517;-77
2022/07/05 08:26:02;;;;;;;6.37;3.98;;;;;;;32.98;85.52;99482.03;1717023;82;20969;-74
2022/07/05 08:28:28;;;;;;;5.67;3.60;;;;;;;33.14;87.48;99480.14;1718230;83;21036;-71
2022/07/05 08:30:54;;;;;;;6.55;4.10;;;;;;;33.15;88.72;99485.36;1718052;83;21000;-73
2022/07/05 08:33:21;;;;;;;6.03;3.60;;;;;;;33.28;86.96;99475.17;1718594;83;21068;-74
2022/07/05 08:35:54;;;;;;;4.83;3.95;;;;;;;33.34;87.12;99483.09;1718174;83;21065;-75
2022/07/05 08:38:22;;;;;;;10.80;3.80;;;;;;;33.36;84.42;99472.78;1718387;83;21031;-75
2022/07/05 08:40:51;;;;;;;13.72;3.75;;;;;;;33.30;84.37;99479.00;1715269;83;20898;-75
2022/07/05 08:43:18;;;;;;;7.20;3.22;;;;;;;33.43;80.02;99477.36;1697975;83;21040;-73
2022/07/05 08:45:53;;;;;;;6.30;3.70;;;;;;;33.50;75.75;99479.08;1718491;83;21033;-75
2022/07/05 08:48:23;;;;;;;6.67;4.10;;;;;;;33.54;75.97;99477.48;1718270;83;21219;-74
2022/07/05 08:50:51;;;;;;;5.75;3.47;;;;;;;33.63;78.58;99488.84;1718563;83;20974;-76
2022/07/05 08:53:23;;;;;;;7.40;3.77;;;;;;;33.64;73.84;99480.48;1718107;83;21534;-73
2022/07/05 08:55:51;;;;;;;9.03;3.45;;;;;;;33.59;73.12;99479.02;1718550;83;21041;-73
2022/07/05 08:58:23;;;;;;;7.90;3.85;;;;;;;33.70;72.46;99479.17;1718026;83;20897;-72
2022/07/05 09:00:50;;;;;;;4.80;3.65;;;;;;;33.80;70.59;99487.85;1718845;83;21109;-74
2022/07/05 09:03:17;;;;;;;6.33;3.70;;;;;;;33.81;70.67;99485.80;1717930;83;21027;-73
2022/07/05 09:05:43;;;;;;;4.45;3.55;;;;;;;33.83;69.29;99486.88;1697936;83;21506;-74
2022/07/05 09:08:15;;;;;;;4.65;3.37;;;;;;;33.88;71.96;99480.50;1718281;82;20994;-71
2022/07/05 09:10:42;;;;;;;5.97;3.70;;;;;;;33.90;68.71;99485.73;1697681;83;20993;-76
2022/07/05 09:13:09;;;;;;;7.37;3.17;;;;;;;33.97;67.88;99486.81;1718459;83;21808;-74
2022/07/05 09:15:39;;;;;;;5.50;3.72;;;;;;;34.08;68.59;99482.63;1718058;83;20981;-73
2022/07/05 09:18:09;;;;;;;7.03;3.65;;;;;;;34.12;68.46;99477.53;1718297;83;21514;-74
2022/07/05 09:20:41;;;;;;;7.65;4.53;;;;;;;34.11;69.79;99481.64;1718197;83;20886;-75
2022/07/05 09:23:11;;;;;;;4.78;3.83;;;;;;;34.12;68.89;99481.81;1718124;83;36586;-75
2022/07/05 09:25:39;;;;;;;6.87;3.80;;;;;;;34.06;71.01;99480.25;1712052;82;21520;-76
2022/07/05 09:28:09;;;;;;;5.90;3.62;;;;;;;34.12;72.24;99480.39;1748008;82;20993;-73
2022/07/05 09:30:41;;;;;;;6.33;3.62;;;;;;;33.93;70.04;99481.92;1714643;83;21010;-78
2022/07/05 09:33:12;;;;;;;5.83;3.70;;;;;;;34.02;68.45;99484.58;1747984;82;21476;-76
2022/07/05 09:36:04;;;;;;;5.37;4.20;;;;;;;33.97;64.99;99485.38;1748381;82;20949;-73
2022/07/05 09:38:31;;;;;;;5.72;4.00;;;;;;;33.93;68.84;99484.78;1714830;83;21173;-76
2022/07/05 09:41:02;;;;;;;5.03;3.10;;;;;;;33.76;67.17;99488.02;1748043;82;20874;-74
2022/07/05 09:43:29;;;;;;;9.40;4.30;;;;;;;33.71;69.94;99492.19;1748223;82;21036;-75
2022/07/05 09:46:04;;;;;;;7.97;4.05;;;;;;;33.57;69.30;99485.88;1714861;83;20980;-72
2022/07/05 09:48:34;;;;;;;5.53;3.80;;;;;;;33.58;74.40;99490.30;1748115;82;20881;-74
2022/07/05 09:51:08;;;;;;;6.47;4.05;;;;;;;33.73;71.86;99485.34;1714967;83;21577;-75
2022/07/05 09:53:54;;;;;;;10.10;3.95;;;;;;;33.63;70.73;99484.56;1747901;81;21461;-73
2022/07/05 09:56:29;;;;;;;4.00;3.47;;;;;;;33.78;71.73;99482.48;1747947;82;20972;-73
2022/07/05 09:58:59;;;;;;;5.58;3.52;;;;;;;34.00;74.04;99480.78;1717388;82;21137;-73
2022/07/05 10:01:31;;;;;;;5.45;3.65;;;;;;;34.19;74.71;99481.46;1748387;82;21044;-72
2022/07/05 10:04:08;;;;;;;3.47;3.17;;;;;;;34.28;73.94;99475.52;1709127;83;20993;-73
2022/07/05 10:06:35;;;;;;;10.85;3.80;;;;;;;34.54;71.26;99478.67;1717231;82;21020;-73
2022/07/05 10:09:04;;;;;;;6.53;3.87;;;;;;;34.67;66.10;99479.02;1714540;83;20949;-74
2022/07/05 10:11:32;;;;;;;6.37;3.70;;;;;;;34.73;68.95;99479.31;1747877;82;20949;-75
2022/07/05 10:14:03;;;;;;;5.90;4.05;;;;;;;34.91;67.17;99484.72;1714699;83;21050;-76
2022/07/05 10:16:34;;;;;;;10.15;4.00;;;;;;;34.94;65.35;99478.67;1748136;82;20850;-76
2022/07/05 10:19:02;;;;;;;13.80;4.00;;;;;;;34.92;66.83;99477.70;1715034;83;20854;-73
2022/07/05 10:21:32;;;;;;;5.83;4.10;;;;;;;34.88;66.78;99470.61;1747901;82;21005;-73
2022/07/05 10:24:21;;;;;;;5.45;3.50;;;;;;;34.83;69.04;99476.38;1715320;83;21001;-75
2022/07/05 10:26:49;;;;;;;9.20;3.85;;;;;;;34.79;67.81;99469.42;1712953;83;21555;-75
2022/07/05 10:29:16;;;;;;;8.08;3.42;;;;;;;34.85;67.14;99464.58;1713027;83;21108;-76
2022/07/05 10:31:44;;;;;;;11.73;3.90;;;;;;;34.88;66.54;99470.61;1712760;83;20953;-74
2022/07/05 10:34:13;;;;;;;5.50;3.95;;;;;;;34.94;67.32;99461.51;1712810;83;21016;-75
2022/07/05 10:36:42;;;;;;;9.58;3.80;;;;;;;35.04;66.59;99459.34;1712733;83;20965;-75
2022/07/05 10:39:11;;;;;;;10.68;3.95;;;;;;;35.12;63.99;99459.08;1712750;83;21568;-76
2022/07/05 10:41:39;;;;;;;4.65;3.50;;;;;;;35.20;64.31;99453.10;1712940;83;21118;-75
2022/07/05 10:44:07;;;;;;;6.40;4.10;;;;;;;35.24;64.14;99450.70;1712722;83;21509;-75
2022/07/05 10:46:41;;;;;;;6.30;4.00;;;;;;;35.33;66.95;99452.05;1712947;83;21004;-78
2022/07/05 10:49:18;;;;;;;5.10;3.65;;;;;;;35.45;67.11;99463.80;1734464;82;20977;-75
2022/07/05 10:51:45;;;;;;;5.58;3.67;;;;;;;35.50;64.67;99455.81;1722211;82;20940;-73
2022/07/05 11:22:11;;;;;;;5.37;3.53;;;;;;;36.02;59.41;99425.19;1807869;78;38694;-73
2022/07/05 11:24:38;;;;;;;4.55;3.67;;;;;;;36.10;57.42;99426.97;1785400;80;20944;-74
2022/07/05 11:27:10;;;;;;;9.03;3.52;;;;;;;36.21;59.89;99428.40;1719119;82;21762;-74
2022/07/05 11:29:48;;;;;;;4.50;3.52;;;;;;;36.27;58.91;99428.64;1739862;82;20913;-73
2022/07/05 11:32:24;;;;;;;4.80;3.22;;;;;;;36.25;57.70;99428.38;1739900;82;20878;-74
2022/07/05 11:55:44;;;;;;;4.05;3.00;;;;;;;35.76;63.25;99418.72;1807781;78;22605;-78
2022/07/05 11:58:13;;;;;;;4.53;3.60;;;;;;;35.54;63.13;99421.38;1781178;80;21021;-77
2022/07/05 12:00:40;;;;;;;9.33;3.58;;;;;;;35.42;64.06;99431.88;1781346;80;21177;-78
2022/07/05 12:03:12;;;;;;;5.60;3.85;;;;;;;35.28;62.94;99429.18;1781090;80;20909;-76
2022/07/05 12:05:38;;;;;;;4.53;3.40;;;;;;;35.23;65.72;99434.17;1781104;80;20917;-78
2022/07/05 12:08:06;;;;;;;6.20;3.40;;;;;;;35.04;66.40;99424.34;1781200;80;20893;-79
2022/07/05 12:13:19;;;;;;;20.62;4.28;;;;;;;34.68;69.94;99427.09;1722752;80;21020;-77
2022/07/05 12:15:46;;;;;;;8.45;4.10;;;;;;;34.57;68.82;99422.57;1781286;80;20874;-79
2022/07/05 12:18:14;;;;;;;4.00;3.60;;;;;;;34.51;67.64;99425.34;1781819;80;20963;-80
2022/07/05 12:20:41;;;;;;;5.45;3.80;;;;;;;34.41;68.34;99423.84;1781107;80;20952;-76
2022/07/05 12:23:07;;;;;;;5.03;3.58;;;;;;;34.37;68.15;99422.59;1781495;80;21406;-77
2022/07/05 12:25:34;;;;;;;10.53;3.87;;;;;;;34.24;67.58;99425.06;1781095;80;22253;-79
2022/07/05 12:28:05;;;;;;;4.40;3.87;;;;;;;34.11;69.56;99425.30;1781322;80;20952;-76
2022/07/05 12:30:31;;;;;;;7.12;3.95;;;;;;;34.04;68.47;99424.86;1781589;80;21454;-76
2022/07/05 12:33:07;;;;;;;5.70;3.72;;;;;;;33.99;68.73;99426.33;1781247;80;20858;-76
2022/07/05 12:35:40;;;;;;;5.97;3.67;;;;;;;33.94;68.99;99424.95;1781090;80;20881;-77
2022/07/05 12:38:23;;;;;;;9.20;3.47;;;;;;;34.04;71.44;99413.44;1781458;80;21100;-78
2022/07/05 12:40:51;;;;;;;6.40;3.60;;;;;;;34.16;72.20;99415.27;1780534;80;20896;-79
2022/07/05 12:43:18;;;;;;;7.45;3.65;;;;;;;34.29;73.93;99415.68;1780151;80;20924;-78
2022/07/05 12:46:05;;;;;;;5.67;4.20;;;;;;;34.44;70.25;99409.36;1781227;80;20881;-78
2022/07/05 12:48:35;;;;;;;7.50;3.67;;;;;;;34.60;69.97;99414.44;1781229;80;20964;-79